Time;durP1;ratioP1;P1;durP2;ratioP2;P2;SDS_P1;SDS_P2;PMS_P1;PMS_P2;Temp;Humidity;BMP_temperature;BMP_pressure;BME280_temperature;BME280_humidity;BME280_pressure;Samples;Min_cycle;Max_cycle;Signal;HPM_P1;HPM_P2
2023/11/14 00:01:54;;;;;;;8.68;3.20;;;;;;;4.98;100.00;92440.72;4941176;29;20075;-80
2023/11/14 00:04:20;;;;;;;5.65;3.03;;;;;;;4.96;100.00;92430.59;4939212;29;20373;-76
2023/11/14 00:06:46;;;;;;;5.32;2.80;;;;;;;4.97;100.00;92439.16;4944273;29;20039;-79
2023/11/14 00:09:13;;;;;;;4.20;2.50;;;;;;;4.95;100.00;92420.47;4932520;29;20027;-80
2023/11/14 00:11:38;;;;;;;6.68;2.80;;;;;;;4.94;100.00;92418.91;4941051;29;20051;-80
2023/11/14 00:14:04;;;;;;;7.22;2.75;;;;;;;4.93;100.00;92406.97;4957683;29;20136;-80
2023/11/14 00:16:31;;;;;;;4.97;2.47;;;;;;;4.89;100.00;92417.06;4957467;29;20081;-79
2023/11/14 00:18:57;;;;;;;6.28;2.65;;;;;;;4.84;100.00;92411.06;4941282;29;20038;-78
2023/11/14 00:21:23;;;;;;;4.53;2.22;;;;;;;4.86;100.00;92407.19;4945424;28;20411;-80
2023/11/14 00:23:49;;;;;;;7.43;2.45;;;;;;;4.86;100.00;92393.44;4921647;29;20126;-79
2023/11/14 00:26:15;;;;;;;4.88;2.20;;;;;;;4.80;100.00;92409.00;4938887;29;20088;-79
2023/11/14 00:28:45;;;;;;;4.45;1.98;;;;;;;5.07;100.00;92387.31;4957279;29;20070;-80
2023/11/14 00:31:11;;;;;;;4.53;2.03;;;;;;;5.33;100.00;92401.13;4957466;29;20040;-81
2023/11/14 00:33:36;;;;;;;4.20;2.00;;;;;;;5.24;100.00;92373.34;4957632;29;20139;-79
2023/11/14 00:36:02;;;;;;;3.72;1.98;;;;;;;5.25;100.00;92399.06;4937732;29;20051;-79
2023/11/14 00:38:28;;;;;;;8.75;2.40;;;;;;;5.18;100.00;92396.69;4938374;29;20036;-80
2023/11/14 00:40:53;;;;;;;4.50;2.17;;;;;;;5.07;100.00;92382.13;4939166;29;20226;-80
2023/11/14 00:43:21;;;;;;;7.22;2.38;;;;;;;5.05;100.00;92368.63;4939058;29;20448;-80
2023/11/14 00:45:46;;;;;;;5.13;2.15;;;;;;;5.03;100.00;92375.09;4938119;29;20549;-80
2023/11/14 00:48:12;;;;;;;7.95;2.15;;;;;;;5.00;100.00;92377.19;4937431;29;20051;-80
2023/11/14 00:50:38;;;;;;;4.03;2.05;;;;;;;5.01;100.00;92398.69;4937541;29;20114;-80
2023/11/14 00:53:03;;;;;;;4.28;2.10;;;;;;;4.97;100.00;92413.22;4937561;29;20039;-80
2023/11/14 00:55:29;;;;;;;4.13;1.95;;;;;;;4.94;100.00;92409.31;4937766;29;20050;-79
2023/11/14 00:57:55;;;;;;;4.10;2.08;;;;;;;4.92;100.00;92415.78;4936630;29;20071;-80
2023/11/14 01:00:21;;;;;;;4.18;2.00;;;;;;;4.90;100.00;92405.66;4930426;29;20385;-80
2023/11/14 01:02:46;;;;;;;3.55;2.00;;;;;;;4.88;100.00;92404.34;4942914;29;20448;-80
2023/11/14 01:05:12;;;;;;;4.15;1.70;;;;;;;4.88;100.00;92419.91;4938492;29;20031;-80
2023/11/14 01:07:38;;;;;;;3.97;1.80;;;;;;;4.84;100.00;92387.72;4929875;29;20063;-81
2023/11/14 01:10:04;;;;;;;3.40;1.70;;;;;;;4.85;100.00;92392.66;4937360;29;20035;-80
2023/11/14 01:12:32;;;;;;;3.92;1.92;;;;;;;4.84;100.00;92395.50;4935918;29;20024;-80
2023/11/14 01:14:58;;;;;;;4.88;1.90;;;;;;;4.80;100.00;92403.81;4936713;29;20043;-81
2023/11/14 01:17:24;;;;;;;3.10;1.70;;;;;;;4.78;100.00;92411.06;4921824;29;20063;-79
2023/11/14 01:19:50;;;;;;;3.42;1.65;;;;;;;4.79;100.00;92391.84;4937245;29;20035;-80
2023/11/14 01:22:16;;;;;;;5.28;1.83;;;;;;;4.72;100.00;92391.31;4935801;29;20439;-80
2023/11/14 01:24:41;;;;;;;3.53;1.50;;;;;;;4.77;100.00;92393.16;4937386;29;20043;-77
2023/11/14 01:27:07;;;;;;;2.95;1.60;;;;;;;4.75;100.00;92388.22;4936439;29;20035;-80
2023/11/14 01:29:33;;;;;;;2.80;1.50;;;;;;;4.74;100.00;92389.25;4938424;29;20044;-80
2023/11/14 01:31:59;;;;;;;3.30;1.63;;;;;;;4.72;100.00;92401.69;4938671;29;20048;-79
2023/11/14 01:34:25;;;;;;;4.00;1.50;;;;;;;4.65;100.00;92400.34;4936455;29;20028;-80
2023/11/14 01:36:56;;;;;;;3.17;1.60;;;;;;;4.66;100.00;92386.34;4913095;29;20128;-79
2023/11/14 01:39:23;;;;;;;4.40;1.90;;;;;;;4.70;100.00;92398.56;4933940;29;20043;-79
2023/11/14 01:41:50;;;;;;;3.28;1.50;;;;;;;4.70;100.00;92383.00;4917636;29;20028;-79
2023/11/14 01:44:16;;;;;;;4.53;1.60;;;;;;;4.68;100.00;92377.28;4917599;29;20036;-80
2023/11/14 01:46:42;;;;;;;2.45;1.42;;;;;;;4.67;100.00;92372.38;4915654;29;20040;-79
2023/11/14 01:49:07;;;;;;;2.67;1.60;;;;;;;4.66;100.00;92365.59;4918293;29;20131;-78
2023/11/14 01:51:34;;;;;;;3.78;1.88;;;;;;;4.63;100.00;92366.13;4905762;29;20032;-80
2023/11/14 01:54:01;;;;;;;3.75;1.50;;;;;;;4.62;100.00;92357.56;4900724;29;20046;-80
2023/11/14 01:56:28;;;;;;;5.95;1.60;;;;;;;4.58;100.00;92343.53;4903492;29;20035;-80
2023/11/14 01:58:55;;;;;;;5.22;1.80;;;;;;;4.62;100.00;92364.56;4922073;29;20063;-80
2023/11/14 02:01:24;;;;;;;3.60;1.80;;;;;;;4.59;100.00;92365.81;4922097;29;20488;-79
2023/11/14 02:03:51;;;;;;;3.67;2.20;;;;;;;4.53;100.00;92372.03;4922062;29;20036;-80
2023/11/14 02:06:16;;;;;;;3.42;1.83;;;;;;;4.58;100.00;92369.47;4921576;29;20071;-80
2023/11/14 02:08:43;;;;;;;3.80;1.90;;;;;;;4.63;100.00;92366.88;4920514;29;20035;-78
2023/11/14 02:11:09;;;;;;;4.38;1.77;;;;;;;4.64;100.00;92373.66;4922343;29;20111;-80
2023/11/14 02:13:35;;;;;;;4.60;1.80;;;;;;;4.63;100.00;92356.53;4917214;29;20512;-78
2023/11/14 02:16:01;;;;;;;5.57;1.90;;;;;;;4.60;100.00;92357.03;4921925;29;20036;-80
2023/11/14 02:18:26;;;;;;;4.93;1.90;;;;;;;4.65;100.00;92361.47;4904511;29;20110;-80
2023/11/14 02:20:52;;;;;;;3.78;1.90;;;;;;;4.64;100.00;92358.09;4919971;29;20036;-80
2023/11/14 02:23:19;;;;;;;3.08;1.55;;;;;;;4.64;100.00;92358.09;4921316;29;20048;-80
2023/11/14 02:25:45;;;;;;;3.85;1.70;;;;;;;4.66;100.00;92361.22;4900917;29;20167;-80
2023/11/14 02:28:11;;;;;;;4.65;2.20;;;;;;;4.69;100.00;92358.13;4915722;29;20050;-79
2023/11/14 02:30:37;;;;;;;5.05;2.55;;;;;;;4.73;100.00;92358.41;4920525;29;20103;-80
2023/11/14 02:33:07;;;;;;;5.63;2.72;;;;;;;4.72;100.00;92359.41;4919940;29;20115;-79
2023/11/14 02:35:33;;;;;;;5.50;3.03;;;;;;;4.78;100.00;92359.19;4938743;29;20054;-78
2023/11/14 02:37:59;;;;;;;6.00;3.60;;;;;;;4.79;100.00;92360.72;4941849;29;20035;-80
2023/11/14 02:40:25;;;;;;;6.32;3.45;;;;;;;4.82;100.00;92364.66;4959063;29;20043;-79
2023/11/14 02:42:52;;;;;;;4.68;3.10;;;;;;;4.82;100.00;92358.66;4942573;29;20419;-80
2023/11/14 02:45:17;;;;;;;6.30;2.88;;;;;;;4.82;100.00;92366.44;4959246;29;20511;-79
2023/11/14 02:47:43;;;;;;;5.15;2.40;;;;;;;4.78;100.00;92369.56;4959806;29;20078;-79
2023/11/14 02:50:26;;;;;;;3.95;2.28;;;;;;;4.74;100.00;92368.50;4941545;29;20122;-80
2023/11/14 02:52:52;;;;;;;4.28;2.20;;;;;;;4.74;100.00;92363.31;4940710;29;20047;-80
2023/11/14 02:55:18;;;;;;;3.03;1.70;;;;;;;4.72;100.00;92355.00;4942460;29;20042;-79
2023/11/14 02:57:43;;;;;;;2.90;1.50;;;;;;;4.72;100.00;92357.59;4960648;28;20039;-80
2023/11/14 03:00:15;;;;;;;3.80;1.90;;;;;;;4.69;100.00;92355.53;4959848;29;20039;-81
2023/11/14 03:02:44;;;;;;;;;;;;;;;4.70;100.00;92351.88;4958158;29;20126;-81
2023/11/14 03:05:10;;;;;;;4.05;1.90;;;;;;;4.69;100.00;92352.94;4940160;29;20401;-79
2023/11/14 03:07:36;;;;;;;4.97;1.60;;;;;;;4.70;100.00;92348.50;4939746;29;20039;-80
2023/11/14 03:10:03;;;;;;;3.03;1.50;;;;;;;4.71;100.00;92348.28;4948044;29;20039;-79
2023/11/14 03:12:29;;;;;;;2.83;1.52;;;;;;;4.75;100.00;92343.34;4958362;29;20526;-79
2023/11/14 03:14:55;;;;;;;4.03;1.60;;;;;;;4.74;100.00;92339.97;4958780;29;20074;-80
2023/11/14 03:17:21;;;;;;;3.38;1.50;;;;;;;4.75;100.00;92348.53;4940859;29;20487;-79
2023/11/14 03:19:47;;;;;;;3.00;1.50;;;;;;;4.75;100.00;92345.94;4941581;29;20047;-80
2023/11/14 03:22:14;;;;;;;4.95;1.63;;;;;;;4.76;100.00;92324.94;4941146;29;20042;-80
2023/11/14 03:24:40;;;;;;;3.88;2.20;;;;;;;4.75;100.00;92318.22;4941298;29;20050;-80
2023/11/14 03:27:05;;;;;;;5.05;1.65;;;;;;;4.74;100.00;92319.22;4958519;28;20059;-80
2023/11/14 03:29:32;;;;;;;4.05;1.88;;;;;;;4.74;100.00;92310.69;4958845;29;20046;-79
2023/11/14 03:31:59;;;;;;;3.35;1.38;;;;;;;4.73;100.00;92309.91;4941423;29;20043;-80
2023/11/14 03:34:26;;;;;;;2.20;1.35;;;;;;;4.73;100.00;92303.94;4941174;29;20067;-79
2023/11/14 03:36:56;;;;;;;2.40;1.40;;;;;;;4.70;100.00;92301.84;4958530;28;20043;-79
2023/11/14 03:39:22;;;;;;;2.75;1.40;;;;;;;4.74;100.00;92308.09;4957884;29;20035;-79
2023/11/14 03:41:48;;;;;;;2.38;1.33;;;;;;;4.73;100.00;92317.69;4958268;29;20058;-80
2023/11/14 03:44:13;;;;;;;2.83;1.33;;;;;;;4.70;100.00;92331.13;4958219;29;20042;-80
2023/11/14 03:46:39;;;;;;;3.85;1.50;;;;;;;4.73;100.00;92356.59;4925382;29;20031;-80
2023/11/14 03:49:05;;;;;;;3.10;1.50;;;;;;;4.71;100.00;92332.72;4957757;29;20103;-80
2023/11/14 03:51:31;;;;;;;5.10;1.40;;;;;;;4.68;100.00;92328.00;4941125;29;20031;-80
2023/11/14 03:53:57;;;;;;;2.80;1.48;;;;;;;4.70;100.00;92338.91;4941219;29;20039;-79
2023/11/14 03:56:22;;;;;;;2.25;1.30;;;;;;;4.73;100.00;92348.81;4940472;28;20050;-80
2023/11/14 03:58:49;;;;;;;3.47;1.63;;;;;;;4.74;100.00;92357.34;4936474;29;20064;-80
2023/11/14 04:01:18;;;;;;;1.90;1.20;;;;;;;4.75;100.00;92370.06;4955887;29;20435;-78
2023/11/14 04:03:44;;;;;;;2.30;1.33;;;;;;;4.72;100.00;92360.19;4940145;29;20526;-78
2023/11/14 04:06:13;;;;;;;1.65;1.17;;;;;;;4.73;100.00;92366.94;4956947;29;20341;-80
2023/11/14 04:08:39;;;;;;;2.15;1.30;;;;;;;4.73;100.00;92366.19;4956822;29;20246;-81
2023/11/14 04:11:07;;;;;;;1.63;1.10;;;;;;;4.74;100.00;92362.53;4924696;29;20103;-80
2023/11/14 04:13:33;;;;;;;2.00;1.15;;;;;;;4.72;100.00;92349.03;4940979;29;20043;-79
2023/11/14 04:16:00;;;;;;;1.75;1.10;;;;;;;4.68;100.00;92343.56;4958684;29;20046;-80
2023/11/14 04:18:26;;;;;;;2.25;1.20;;;;;;;4.67;100.00;92339.44;4954979;28;20039;-80
2023/11/14 04:20:51;;;;;;;2.08;1.10;;;;;;;4.64;100.00;92337.34;4957409;28;20105;-80
2023/11/14 04:23:17;;;;;;;1.88;1.30;;;;;;;4.62;100.00;92347.19;4957779;29;20046;-80
2023/11/14 04:25:43;;;;;;;3.67;1.23;;;;;;;4.61;100.00;92350.81;4957994;29;20054;-80
2023/11/14 04:28:08;;;;;;;1.83;1.13;;;;;;;4.60;100.00;92341.47;4937609;29;20098;-80
2023/11/14 04:30:34;;;;;;;1.63;1.15;;;;;;;4.59;100.00;92339.91;4933087;29;20031;-79
2023/11/14 04:33:00;;;;;;;2.28;1.30;;;;;;;4.57;100.00;92314.25;4957887;29;20047;-79
2023/11/14 04:35:26;;;;;;;2.15;1.30;;;;;;;4.63;100.00;92329.81;4940663;29;20056;-79
2023/11/14 04:37:55;;;;;;;1.58;1.20;;;;;;;4.64;100.00;92329.56;4940105;29;20049;-80
2023/11/14 04:40:21;;;;;;;3.97;1.20;;;;;;;4.66;100.00;92311.97;4940065;29;20094;-79
2023/11/14 04:42:47;;;;;;;2.33;1.35;;;;;;;4.68;100.00;92322.06;4940042;29;20043;-80
2023/11/14 04:45:12;;;;;;;2.40;1.40;;;;;;;4.63;100.00;92309.84;4956480;29;20443;-80
2023/11/14 04:47:38;;;;;;;2.15;1.40;;;;;;;4.61;100.00;92318.91;4921113;29;20043;-80
2023/11/14 04:50:05;;;;;;;2.05;1.40;;;;;;;4.64;100.00;92321.00;4953739;29;20043;-79
2023/11/14 04:52:30;;;;;;;2.28;1.27;;;;;;;4.66;100.00;92314.53;4957155;29;20105;-80
2023/11/14 04:54:57;;;;;;;2.15;1.25;;;;;;;4.69;100.00;92327.00;4957728;29;20043;-81
2023/11/14 04:57:23;;;;;;;2.30;1.27;;;;;;;4.67;100.00;92336.84;4955989;28;20027;-80
2023/11/14 04:59:49;;;;;;;2.85;1.23;;;;;;;4.68;100.00;92337.59;4956205;29;20541;-79
2023/11/14 05:02:14;;;;;;;2.15;1.15;;;;;;;4.70;100.00;92345.91;4956220;29;20024;-81
2023/11/14 05:04:42;;;;;;;2.78;1.33;;;;;;;4.72;100.00;92347.22;4957193;29;20042;-79
2023/11/14 05:07:08;;;;;;;2.55;1.30;;;;;;;4.73;100.00;92337.66;4956481;28;20043;-80
2023/11/14 05:09:35;;;;;;;3.20;1.30;;;;;;;4.73;100.00;92361.75;4957342;29;20035;-79
2023/11/14 05:12:01;;;;;;;2.28;1.10;;;;;;;4.70;100.00;92351.88;4956649;29;20043;-80
2023/11/14 05:14:26;;;;;;;2.35;1.33;;;;;;;4.71;100.00;92368.25;4957690;29;20261;-80
2023/11/14 05:16:56;;;;;;;2.70;1.50;;;;;;;4.66;100.00;92363.81;4939937;29;20038;-79
2023/11/14 05:19:27;;;;;;;2.75;1.48;;;;;;;4.62;100.00;92359.38;4950713;29;20051;-80
2023/11/14 05:21:53;;;;;;;2.50;1.38;;;;;;;4.62;100.00;92354.97;4957337;29;20035;-80
2023/11/14 05:24:18;;;;;;;2.03;1.30;;;;;;;4.59;100.00;92356.25;4953626;28;20094;-80
2023/11/14 05:26:44;;;;;;;2.75;1.40;;;;;;;4.58;100.00;92365.06;4955139;28;20149;-78
2023/11/14 05:29:10;;;;;;;2.70;1.50;;;;;;;4.67;100.00;92357.59;4953044;29;20043;-80
2023/11/14 05:31:37;;;;;;;3.90;1.90;;;;;;;4.71;100.00;92350.88;4953237;28;20043;-80
2023/11/14 05:34:03;;;;;;;2.67;1.40;;;;;;;4.75;100.00;92348.53;4938889;29;20031;-79
2023/11/14 05:36:29;;;;;;;2.25;1.30;;;;;;;4.74;100.00;92355.53;4953194;29;20077;-80
2023/11/14 05:38:54;;;;;;;2.70;1.58;;;;;;;4.75;100.00;92351.13;4947904;29;20496;-79
2023/11/14 05:41:20;;;;;;;3.50;1.60;;;;;;;4.73;100.00;92345.44;4953745;29;20471;-80
2023/11/14 05:43:45;;;;;;;2.80;1.50;;;;;;;4.74;100.00;92332.19;4937287;29;20042;-80
2023/11/14 05:46:11;;;;;;;2.25;1.45;;;;;;;4.74;100.00;92328.81;4953606;29;20142;-81
2023/11/14 05:48:37;;;;;;;3.38;1.70;;;;;;;4.74;100.00;92334.78;4955239;28;20322;-81
2023/11/14 05:51:03;;;;;;;4.55;1.60;;;;;;;4.77;100.00;92336.91;4935428;29;20035;-80
2023/11/14 05:53:29;;;;;;;3.40;1.55;;;;;;;4.78;100.00;92329.88;4935919;29;20035;-81
2023/11/14 05:56:01;;;;;;;4.70;1.77;;;;;;;4.75;100.00;92320.81;4943914;29;20040;-80
2023/11/14 05:58:27;;;;;;;3.58;1.70;;;;;;;4.84;100.00;92341.03;4953206;28;20107;-80
2023/11/14 06:00:53;;;;;;;4.40;2.15;;;;;;;4.87;100.00;92348.34;4938345;29;20102;-80
2023/11/14 06:03:19;;;;;;;4.43;1.88;;;;;;;4.90;100.00;92366.75;4960966;29;20043;-80
2023/11/14 06:05:45;;;;;;;3.38;1.48;;;;;;;4.90;100.00;92358.19;4961362;29;20055;-80
2023/11/14 06:08:11;;;;;;;3.38;1.80;;;;;;;4.89;100.00;92360.00;4961100;29;20051;-81
2023/11/14 06:10:36;;;;;;;4.78;2.13;;;;;;;4.94;100.00;92343.69;4972601;28;20403;-81
2023/11/14 06:13:02;;;;;;;4.63;1.95;;;;;;;4.96;100.00;92339.03;4951348;29;20079;-80
2023/11/14 06:15:29;;;;;;;5.38;2.03;;;;;;;4.93;100.00;92324.75;4952180;29;20031;-80
2023/11/14 06:17:55;;;;;;;4.88;2.05;;;;;;;4.96;100.00;92308.66;4959820;28;20495;-80
2023/11/14 06:20:24;;;;;;;6.90;2.00;;;;;;;4.98;100.00;92300.66;4960115;28;20280;-80
2023/11/14 06:22:50;;;;;;;5.30;1.83;;;;;;;5.00;100.00;92308.94;4941886;29;20031;-79
2023/11/14 06:25:16;;;;;;;3.60;1.83;;;;;;;4.98;100.00;92292.84;4959245;29;20075;-80
2023/11/14 06:27:42;;;;;;;3.97;1.73;;;;;;;5.00;100.00;92290.78;4957586;29;20028;-79
2023/11/14 06:30:08;;;;;;;4.35;1.77;;;;;;;4.97;100.00;92278.31;4959856;29;20023;-80
2023/11/14 06:32:35;;;;;;;4.50;1.90;;;;;;;5.00;100.00;92278.59;4943573;29;20051;-79
2023/11/14 06:35:02;;;;;;;5.82;1.92;;;;;;;5.03;100.00;92276.53;4941318;29;20143;-82
2023/11/14 06:37:28;;;;;;;4.57;1.70;;;;;;;5.03;100.00;92273.94;4941765;29;20036;-80
2023/11/14 06:39:55;;;;;;;3.17;1.70;;;;;;;5.04;100.00;92273.66;4940777;29;20050;-80
2023/11/14 06:42:24;;;;;;;3.42;1.70;;;;;;;5.05;100.00;92285.59;4939420;29;20106;-81
2023/11/14 06:44:50;;;;;;;2.72;1.73;;;;;;;5.07;100.00;92278.34;4942436;29;20028;-80
2023/11/14 06:47:16;;;;;;;3.17;1.52;;;;;;;5.07;100.00;92273.16;4943848;29;20076;-80
2023/11/14 06:49:43;;;;;;;3.05;1.70;;;;;;;5.10;100.00;92272.63;4944149;29;20377;-80
2023/11/14 06:52:10;;;;;;;4.50;1.90;;;;;;;5.17;100.00;92282.75;4943631;29;20039;-80
2023/11/14 06:54:39;;;;;;;3.80;1.80;;;;;;;5.29;100.00;92303.28;4940817;29;20027;-79
2023/11/14 06:57:07;;;;;;;4.70;2.00;;;;;;;5.48;100.00;92304.34;4942500;29;20039;-80
2023/11/14 06:59:33;;;;;;;4.22;2.20;;;;;;;6.04;100.00;92311.38;4930436;29;20031;-82
2023/11/14 07:02:01;;;;;;;5.50;2.22;;;;;;;6.93;100.00;92323.88;4938702;29;20042;-82
2023/11/14 07:04:28;;;;;;;5.57;2.13;;;;;;;8.04;100.00;92337.25;4931609;29;20086;-81
2023/11/14 07:06:54;;;;;;;4.70;2.05;;;;;;;8.80;100.00;92342.81;4943056;29;20040;-82
2023/11/14 07:09:25;;;;;;;4.50;2.08;;;;;;;9.56;100.00;92340.31;4927151;29;20044;-81
2023/11/14 07:11:54;;;;;;;7.72;1.92;;;;;;;9.82;100.00;92355.63;4934659;29;20625;-81
2023/11/14 07:14:22;;;;;;;3.08;1.80;;;;;;;10.22;100.00;92367.28;4937476;29;20027;-81
2023/11/14 07:16:49;;;;;;;5.07;1.70;;;;;;;10.04;100.00;92366.25;4934494;29;20599;-81
2023/11/14 07:19:15;;;;;;;4.15;2.00;;;;;;;9.77;100.00;92361.69;4922767;29;20349;-81
2023/11/14 07:21:41;;;;;;;6.07;2.00;;;;;;;9.61;100.00;92357.75;4920476;29;20043;-82
2023/11/14 07:24:07;;;;;;;4.88;1.88;;;;;;;9.84;100.00;92351.69;4936204;29;20028;-82
2023/11/14 07:26:34;;;;;;;3.65;1.90;;;;;;;10.79;100.00;92347.00;4914870;29;20496;-81
2023/11/14 07:28:59;;;;;;;5.25;1.90;;;;;;;10.98;100.00;92357.38;4940262;29;20091;-81
2023/11/14 07:31:25;;;;;;;3.50;1.88;;;;;;;11.88;100.00;92378.63;4928788;29;20412;-81
2023/11/14 07:33:52;;;;;;;5.47;2.20;;;;;;;12.32;100.00;92393.94;4935369;29;20443;-82
2023/11/14 07:36:17;;;;;;;5.05;2.03;;;;;;;13.94;100.00;92377.56;4947667;29;20048;-82
2023/11/14 07:38:44;;;;;;;4.20;2.05;;;;;;;15.48;100.00;92366.53;4960462;29;20586;-82
2023/11/14 07:41:10;;;;;;;4.13;1.90;;;;;;;16.16;90.65;92358.50;4959582;29;20059;-82
2023/11/14 07:43:37;;;;;;;2.97;1.77;;;;;;;17.04;75.81;92372.44;4942501;29;20175;-83
2023/11/14 07:46:04;;;;;;;4.18;1.58;;;;;;;17.24;74.68;92370.81;4960085;29;20039;-82
2023/11/14 07:48:32;;;;;;;3.80;1.45;;;;;;;15.64;80.58;92350.91;4956291;29;20020;-82
2023/11/14 07:50:59;;;;;;;2.90;1.88;;;;;;;17.09;76.38;92348.44;4955711;29;20031;-81
2023/11/14 07:53:25;;;;;;;3.08;1.50;;;;;;;16.90;73.20;92356.88;4951878;29;20062;-82
2023/11/14 07:55:51;;;;;;;4.95;1.50;;;;;;;16.19;74.46;92366.56;4952786;29;20046;-82
2023/11/14 07:58:17;;;;;;;2.75;1.58;;;;;;;17.09;72.51;92366.97;4940024;29;20122;-82
2023/11/14 08:00:42;;;;;;;3.28;1.30;;;;;;;16.32;71.96;92335.66;4937575;29;20345;-82
2023/11/14 08:03:10;;;;;;;2.30;1.30;;;;;;;16.79;70.07;92329.31;4941658;29;20035;-83
2023/11/14 08:05:40;;;;;;;3.70;1.55;;;;;;;18.02;67.46;92335.38;4958413;29;20082;-81
2023/11/14 08:08:09;;;;;;;2.97;1.33;;;;;;;18.07;61.15;92355.53;4957587;29;20034;-81
2023/11/14 08:10:38;;;;;;;4.53;1.52;;;;;;;19.13;62.86;92348.13;4946452;29;20040;-81
2023/11/14 08:13:05;;;;;;;2.95;1.50;;;;;;;18.80;60.31;92335.16;4956159;29;20110;-81
2023/11/14 08:15:31;;;;;;;2.78;1.48;;;;;;;17.97;61.23;92351.50;4938200;29;20169;-81
2023/11/14 08:17:56;;;;;;;3.75;1.60;;;;;;;16.36;74.16;92370.13;4953086;29;20587;-81
2023/11/14 08:20:22;;;;;;;3.38;1.77;;;;;;;14.85;84.11;92364.47;4948986;29;20040;-80
2023/11/14 08:22:48;;;;;;;4.15;2.00;;;;;;;13.98;88.50;92355.88;4956405;29;20654;-82
2023/11/14 08:25:14;;;;;;;3.42;1.60;;;;;;;13.56;93.30;92368.69;4948348;29;20087;-80
2023/11/14 08:27:42;;;;;;;2.92;1.58;;;;;;;13.09;100.00;92380.44;4945829;28;20456;-81
2023/11/14 08:30:09;;;;;;;3.25;1.60;;;;;;;12.91;100.00;92387.47;4939469;29;20480;-80
2023/11/14 08:32:35;;;;;;;3.50;1.60;;;;;;;13.03;100.00;92379.00;4949244;29;20391;-82
2023/11/14 08:35:03;;;;;;;5.38;2.10;;;;;;;12.80;100.00;92380.16;4956318;29;20321;-82
2023/11/14 08:37:31;;;;;;;4.03;1.70;;;;;;;12.81;100.00;92364.09;4939863;29;20107;-81
2023/11/14 08:39:56;;;;;;;4.68;1.63;;;;;;;12.85;100.00;92338.75;4956593;29;20062;-81
2023/11/14 08:42:22;;;;;;;5.53;1.70;;;;;;;12.66;100.00;92353.97;4937879;29;20042;-81
2023/11/14 08:44:48;;;;;;;4.10;1.95;;;;;;;12.44;100.00;92349.53;4945730;29;20302;-80
2023/11/14 08:47:13;;;;;;;2.03;1.35;;;;;;;13.26;100.00;92347.41;4946521;29;20475;-80
2023/11/14 08:49:40;;;;;;;2.67;1.60;;;;;;;13.95;98.65;92334.34;4942353;29;20035;-80
2023/11/14 08:52:06;;;;;;;3.00;1.60;;;;;;;13.94;95.40;92335.47;4948689;29;20024;-81
2023/11/14 08:54:32;;;;;;;4.53;1.40;;;;;;;14.16;91.22;92346.88;4948758;29;20074;-80
2023/11/14 08:56:59;;;;;;;3.97;1.50;;;;;;;13.66;97.26;92342.09;4949520;29;20046;-81
2023/11/14 08:59:24;;;;;;;3.13;1.50;;;;;;;13.08;100.00;92350.00;4953138;29;20035;-81
2023/11/14 09:01:50;;;;;;;4.47;1.55;;;;;;;12.84;100.00;92333.81;4950204;29;20103;-81
2023/11/14 09:04:17;;;;;;;3.78;1.40;;;;;;;12.71;99.87;92338.09;4956587;29;20035;-81
2023/11/14 09:06:44;;;;;;;2.33;1.45;;;;;;;12.28;100.00;92339.41;4935875;29;20179;-81
2023/11/14 09:09:10;;;;;;;3.17;1.08;;;;;;;11.93;100.00;92327.91;4956829;28;20454;-81
2023/11/14 09:11:36;;;;;;;1.20;0.88;;;;;;;11.59;100.00;92323.91;4947346;29;20107;-81
2023/11/14 09:14:02;;;;;;;1.90;1.20;;;;;;;11.81;100.00;92331.03;4955923;29;20062;-80
2023/11/14 09:16:28;;;;;;;3.10;1.40;;;;;;;12.33;100.00;92335.09;4948575;29;20031;-80
2023/11/14 09:18:54;;;;;;;1.90;1.23;;;;;;;12.70;100.00;92350.44;4947932;29;20083;-80
2023/11/14 09:21:22;;;;;;;3.72;1.25;;;;;;;13.99;100.00;92352.94;4948353;29;20058;-80
2023/11/14 09:23:48;;;;;;;1.73;1.20;;;;;;;14.75;87.22;92351.63;4956450;29;20124;-80
2023/11/14 09:26:14;;;;;;;2.03;1.15;;;;;;;14.31;87.01;92340.38;4948682;29;20115;-80
2023/11/14 09:28:40;;;;;;;3.03;1.30;;;;;;;14.23;89.54;92349.06;4948308;29;20155;-80
2023/11/14 09:31:07;;;;;;;4.25;1.50;;;;;;;14.21;90.16;92353.84;4948477;29;20054;-80
2023/11/14 09:33:33;;;;;;;1.25;1.05;;;;;;;14.19;94.32;92354.19;4954291;29;20046;-80
2023/11/14 09:35:59;;;;;;;8.07;1.58;;;;;;;14.09;100.00;92339.47;4928825;29;20060;-81
2023/11/14 09:38:24;;;;;;;1.98;1.17;;;;;;;13.68;97.99;92326.78;4928784;29;20036;-81
2023/11/14 09:40:50;;;;;;;2.00;1.33;;;;;;;13.44;100.00;92312.22;4936087;29;20111;-81
2023/11/14 09:43:21;;;;;;;2.47;1.40;;;;;;;13.18;100.00;92306.88;4929254;29;20384;-80
2023/11/14 09:45:48;;;;;;;2.30;1.58;;;;;;;13.12;100.00;92292.31;4929419;29;20123;-81
2023/11/14 09:48:14;;;;;;;2.63;1.58;;;;;;;13.62;100.00;92288.56;4936426;29;20027;-81
2023/11/14 09:50:41;;;;;;;3.13;1.73;;;;;;;13.86;100.00;92293.34;4929558;29;20036;-80
2023/11/14 09:53:07;;;;;;;2.72;1.48;;;;;;;14.51;95.38;92278.38;4935249;29;20034;-80
2023/11/14 09:55:33;;;;;;;5.03;1.98;;;;;;;14.07;98.90;92269.81;4929521;29;20381;-81
2023/11/14 09:58:02;;;;;;;3.78;1.80;;;;;;;12.96;100.00;92234.19;4930209;29;20051;-80
2023/11/14 10:00:30;;;;;;;5.70;1.88;;;;;;;12.59;100.00;92232.84;4935134;29;20095;-81
2023/11/14 10:02:58;;;;;;;3.55;1.83;;;;;;;12.87;100.00;92255.16;4931635;29;20118;-81
2023/11/14 10:05:24;;;;;;;5.35;2.20;;;;;;;13.22;100.00;92281.53;4927991;29;20051;-82
2023/11/14 10:07:50;;;;;;;3.67;1.80;;;;;;;13.82;100.00;92289.78;4922406;29;20020;-82
2023/11/14 10:10:16;;;;;;;2.83;1.63;;;;;;;14.24;100.00;92290.06;4938415;29;20039;-80
2023/11/14 10:12:42;;;;;;;3.60;1.60;;;;;;;14.65;96.00;92284.25;4933359;29;20075;-81
2023/11/14 10:15:08;;;;;;;2.63;1.40;;;;;;;14.82;93.54;92280.00;4935318;29;20508;-81
2023/11/14 10:17:45;;;;;;;2.15;1.40;;;;;;;15.18;91.87;92287.44;4939222;29;20028;-81
2023/11/14 10:20:12;;;;;;;2.55;1.40;;;;;;;15.46;87.19;92295.63;4939798;29;20051;-81
2023/11/14 10:23:07;;;;;;;2.65;1.40;;;;;;;15.73;83.51;92312.84;4941017;29;20028;-82
2023/11/14 10:25:33;;;;;;;2.67;1.35;;;;;;;15.64;80.80;92319.25;4939218;29;20059;-81
2023/11/14 10:28:04;;;;;;;1.52;1.05;;;;;;;15.94;76.95;92312.88;4941560;29;20028;-83
2023/11/14 10:30:42;;;;;;;2.97;1.40;;;;;;;15.79;80.41;92306.28;4930617;29;20182;-81
2023/11/14 10:33:08;;;;;;;2.58;1.38;;;;;;;14.92;89.07;92292.81;4930404;29;20039;-82
2023/11/14 10:35:35;;;;;;;2.75;1.50;;;;;;;14.27;92.45;92297.31;4951182;29;20126;-81
2023/11/14 10:38:21;;;;;;;2.70;1.50;;;;;;;14.02;98.69;92306.81;4960943;28;20137;-82
2023/11/14 10:40:49;;;;;;;3.65;1.50;;;;;;;13.89;94.91;92309.31;4950270;29;20047;-81
2023/11/14 10:43:29;;;;;;;3.95;1.38;;;;;;;13.84;97.96;92306.81;4957733;29;20042;-82
2023/11/14 10:45:55;;;;;;;2.40;1.60;;;;;;;13.99;92.85;92286.41;4956169;29;20027;-82
2023/11/14 10:48:26;;;;;;;1.50;1.20;;;;;;;14.22;92.56;92263.28;4959870;29;20419;-82
2023/11/14 10:50:52;;;;;;;2.83;1.70;;;;;;;14.32;89.53;92250.56;4954360;29;20075;-81
2023/11/14 10:53:18;;;;;;;2.85;1.60;;;;;;;13.93;99.07;92230.50;4957728;29;20027;-81
2023/11/14 10:55:47;;;;;;;3.35;1.50;;;;;;;13.57;99.34;92226.38;4949812;29;20439;-82
2023/11/14 10:58:16;;;;;;;5.57;1.60;;;;;;;13.19;98.53;92228.81;4957858;29;20039;-81
2023/11/14 11:00:42;;;;;;;2.90;1.58;;;;;;;13.08;99.68;92218.59;4954956;29;20522;-82
2023/11/14 11:03:09;;;;;;;3.40;1.50;;;;;;;13.20;98.54;92220.63;4950588;29;20019;-81
2023/11/14 11:05:35;;;;;;;3.42;1.75;;;;;;;13.31;100.00;92226.38;4954419;29;20039;-80
2023/11/14 11:08:04;;;;;;;2.63;1.45;;;;;;;14.05;95.20;92221.97;4942232;29;20040;-80
2023/11/14 11:10:37;;;;;;;3.65;1.70;;;;;;;14.07;96.80;92212.69;4952277;29;20042;-82
2023/11/14 11:13:16;;;;;;;1.73;1.30;;;;;;;13.71;95.88;92202.53;4951227;29;20044;-80
2023/11/14 11:15:47;;;;;;;4.63;1.63;;;;;;;13.37;99.29;92211.97;4953098;29;20038;-80
2023/11/14 11:18:13;;;;;;;3.03;1.67;;;;;;;13.12;100.00;92230.03;4942886;29;20047;-80
2023/11/14 11:20:39;;;;;;;2.50;1.50;;;;;;;13.04;98.96;92237.91;4959151;29;20028;-81
2023/11/14 11:23:12;;;;;;;2.90;1.60;;;;;;;12.98;98.69;92218.13;4958299;29;20416;-81
2023/11/14 11:25:44;;;;;;;3.70;1.70;;;;;;;12.99;100.00;92199.44;4950755;29;20122;-79
2023/11/14 11:28:19;;;;;;;1.73;1.15;;;;;;;13.08;97.37;92208.09;4957089;28;20391;-81
2023/11/14 11:31:05;;;;;;;3.13;1.60;;;;;;;13.12;98.56;92219.50;4952889;29;20098;-82